createdAt,value
2022-08-26T00:00:59.915Z,99341.41
2022-08-26T00:02:32.129Z,99340.63
2022-08-26T00:04:04.384Z,99339.09
2022-08-26T00:05:36.883Z,99336.91
2022-08-26T00:07:09.248Z,99338.84
2022-08-26T00:08:41.824Z,99338.75
2022-08-26T00:10:14.421Z,99337.25
2022-08-26T00:11:47.227Z,99331.66
2022-08-26T00:13:19.729Z,99327.50
2022-08-26T00:14:51.801Z,99332.28
2022-08-26T00:16:24.694Z,99330.94
2022-08-26T00:17:57.108Z,99325.44
2022-08-26T00:19:29.364Z,99321.97
2022-08-26T00:21:01.542Z,99328.97
2022-08-26T00:22:38.465Z,99327.56
2022-08-26T00:24:10.947Z,99326.91
2022-08-26T00:25:43.060Z,99325.63
2022-08-26T00:27:15.218Z,99327.81
2022-08-26T00:28:47.932Z,99325.13
2022-08-26T00:30:22.773Z,99330.06
2022-08-26T00:31:56.373Z,99333.59
2022-08-26T00:33:28.525Z,99317.09
2022-08-26T00:35:00.653Z,99319.22
2022-08-26T00:36:34.248Z,99321.97
2022-08-26T00:38:06.418Z,99319.91
2022-08-26T00:39:39.588Z,99322.63
2022-08-26T00:41:12.704Z,99316.41
2022-08-26T00:42:46.252Z,99315.69
2022-08-26T00:44:19.583Z,99323.22
2022-08-26T00:46:18.118Z,99312.19
2022-08-26T00:47:53.135Z,99314.28
2022-08-26T00:49:32.766Z,99310.16
2022-08-26T00:51:09.059Z,99302.53
2022-08-26T00:52:42.255Z,99295.72
2022-08-26T00:54:17.520Z,99301.38
2022-08-26T00:55:59.610Z,99307.66
2022-08-26T00:57:33.170Z,99298.16
2022-08-26T00:59:06.875Z,99303.88
2022-08-26T01:00:39.385Z,99301.94
2022-08-26T01:02:21.246Z,99301.34
2022-08-26T01:03:55.581Z,99295.88
2022-08-26T01:05:28.739Z,99298.00
2022-08-26T01:07:03.911Z,99300.09
2022-08-26T01:08:36.877Z,99298.13
2022-08-26T01:10:11.374Z,99295.41
2022-08-26T01:11:43.611Z,99295.47
2022-08-26T01:13:16.653Z,99293.44
2022-08-26T01:14:52.230Z,99298.28
2022-08-26T01:16:27.474Z,99297.56
2022-08-26T01:18:00.336Z,99294.13
2022-08-26T01:19:51.087Z,99294.81
2022-08-26T01:21:45.470Z,99295.50
2022-08-26T01:23:17.926Z,99308.72
2022-08-26T01:24:54.649Z,99299.78
2022-08-26T01:26:30.953Z,99302.53
2022-08-26T01:28:21.703Z,99305.22
2022-08-26T01:29:54.344Z,99305.81
2022-08-26T01:31:27.961Z,99305.72
2022-08-26T01:33:01.498Z,99302.72
2022-08-26T01:34:36.083Z,99310.09
2022-08-26T01:36:08.644Z,99306.31
2022-08-26T01:37:41.076Z,99303.25
2022-08-26T01:39:13.385Z,99301.50
2022-08-26T01:40:46.010Z,99307.34
2022-08-26T01:42:19.871Z,99302.91
2022-08-26T01:43:54.619Z,99300.47
2022-08-26T01:45:29.120Z,99296.75
2022-08-26T01:47:02.085Z,99301.97
2022-08-26T01:48:38.798Z,99299.66
2022-08-26T01:50:12.610Z,99302.22
2022-08-26T01:51:50.321Z,99302.63
2022-08-26T01:53:23.747Z,99299.00
2022-08-26T01:54:57.158Z,99302.84
2022-08-26T01:56:33.356Z,99305.44
2022-08-26T01:58:11.050Z,99304.47
2022-08-26T01:59:44.290Z,99305.69
2022-08-26T02:01:16.905Z,99302.78
2022-08-26T02:03:17.154Z,99304.75
2022-08-26T02:04:51.793Z,99301.16
2022-08-26T02:06:24.516Z,99303.13
2022-08-26T02:07:57.165Z,99304.38
2022-08-26T02:09:29.304Z,99302.91
2022-08-26T02:11:03.024Z,99304.13
2022-08-26T02:12:35.911Z,99306.13
2022-08-26T02:14:20.089Z,99302.59
2022-08-26T02:15:53.310Z,99303.88
2022-08-26T02:17:37.896Z,99298.91
2022-08-26T02:19:16.998Z,99296.78
2022-08-26T02:20:51.542Z,99300.19
2022-08-26T02:22:24.653Z,99303.56
2022-08-26T02:23:56.872Z,99300.06
2022-08-26T02:25:34.072Z,99302.13
2022-08-26T02:27:06.186Z,99311.81
2022-08-26T02:28:45.430Z,99302.13
2022-08-26T02:30:22.363Z,99302.78
2022-08-26T02:31:55.814Z,99304.72
2022-08-26T02:33:28.609Z,99301.91
2022-08-26T02:35:00.611Z,99304.56
2022-08-26T02:36:32.922Z,99301.78
2022-08-26T02:38:10.032Z,99303.72
2022-08-26T02:39:43.658Z,99299.53
2022-08-26T02:41:15.728Z,99300.81
2022-08-26T02:42:52.746Z,99300.06
2022-08-26T02:44:26.266Z,99303.41
2022-08-26T02:45:59.522Z,99302.69
2022-08-26T02:47:34.005Z,99304.84
2022-08-26T02:49:07.022Z,99300.72
2022-08-26T02:50:40.034Z,99301.44
2022-08-26T02:52:12.346Z,99298.69
2022-08-26T02:53:44.517Z,99301.44
2022-08-26T02:55:16.700Z,99300.72
2022-08-26T02:56:49.503Z,99296.63
2022-08-26T02:58:21.826Z,99298.06
2022-08-26T02:59:53.894Z,99302.94
2022-08-26T03:01:27.496Z,99294.69
2022-08-26T03:03:00.168Z,99296.13
2022-08-26T03:04:33.372Z,99295.41
2022-08-26T03:06:05.656Z,99295.41
2022-08-26T03:07:37.815Z,99285.78
2022-08-26T03:09:10.615Z,99283.69
2022-08-26T03:10:50.991Z,99283.00
2022-08-26T03:12:23.045Z,99279.59
2022-08-26T03:13:55.674Z,99286.50
2022-08-26T03:15:29.001Z,99283.03
2022-08-26T03:17:01.168Z,99284.44
2022-08-26T03:18:33.301Z,99283.03
2022-08-26T03:20:09.498Z,99274.78
2022-08-26T03:21:42.273Z,99283.75
2022-08-26T03:23:15.077Z,99281.69
2022-08-26T03:24:48.623Z,99287.94
2022-08-26T03:26:21.188Z,99289.34
2022-08-26T03:27:53.773Z,99288.66
2022-08-26T03:29:45.649Z,99294.75
2022-08-26T03:31:24.652Z,99297.50
2022-08-26T03:32:57.280Z,99287.84
2022-08-26T03:34:29.477Z,99292.66
2022-08-26T03:36:04.052Z,99289.19
2022-08-26T03:37:36.614Z,99293.28
2022-08-26T03:39:09.191Z,99289.72
2022-08-26T03:40:42.785Z,99285.47
2022-08-26T03:42:15.971Z,99284.78
2022-08-26T03:43:50.780Z,99282.03
2022-08-26T03:45:23.473Z,99286.13
2022-08-26T03:46:56.673Z,99281.28
2022-08-26T03:48:28.757Z,99284.72
2022-08-26T03:50:02.434Z,99284.63
2022-08-26T03:51:35.357Z,99289.53
2022-08-26T03:53:12.771Z,99295.03
2022-08-26T03:54:45.506Z,99294.28
2022-08-26T03:56:19.507Z,99295.03
2022-08-26T03:57:52.119Z,99299.09
2022-08-26T03:59:24.281Z,99295.63
2022-08-26T04:00:56.622Z,99292.88
2022-08-26T04:02:28.919Z,99289.41
2022-08-26T04:04:01.590Z,99288.09
2022-08-26T04:05:35.351Z,99296.34
2022-08-26T04:07:07.478Z,99294.28
2022-08-26T04:08:40.202Z,99296.44
2022-08-26T04:10:13.638Z,99290.94
2022-08-26T04:11:47.555Z,99299.25
2022-08-26T04:13:22.948Z,99291.69
2022-08-26T04:14:57.087Z,99295.22
2022-08-26T04:16:30.755Z,99293.88
2022-08-26T04:18:02.945Z,99298.88
2022-08-26T04:19:35.090Z,99299.53
2022-08-26T04:21:08.105Z,99301.06
2022-08-26T04:22:42.158Z,99296.41
2022-08-26T04:24:15.656Z,99302.06
2022-08-26T04:25:47.703Z,99296.00
2022-08-26T04:27:20.327Z,99302.44
2022-08-26T04:28:53.846Z,99301.19
2022-08-26T04:30:25.962Z,99305.56
2022-08-26T04:31:58.135Z,99303.69
2022-08-26T04:33:32.471Z,99297.69
2022-08-26T04:35:06.266Z,99287.59
2022-08-26T04:36:38.719Z,99287.75
2022-08-26T04:38:11.140Z,99293.53
2022-08-26T04:39:43.617Z,99297.91
2022-08-26T04:41:18.519Z,99300.25
2022-08-26T04:42:50.712Z,99302.56
2022-08-26T04:44:24.995Z,99300.13
2022-08-26T04:45:59.600Z,99303.84
2022-08-26T04:47:32.499Z,99302.75
2022-08-26T04:49:08.343Z,99299.59
2022-08-26T04:50:40.461Z,99301.31
2022-08-26T04:52:15.474Z,99302.97
2022-08-26T04:53:48.414Z,99305.34
2022-08-26T04:55:38.103Z,99296.00
2022-08-26T04:57:11.927Z,99299.13
2022-08-26T04:58:46.740Z,99303.63
2022-08-26T05:00:19.290Z,99301.16
2022-08-26T05:01:52.597Z,99306.28
2022-08-26T05:03:25.554Z,99306.56
2022-08-26T05:04:58.798Z,99300.75
2022-08-26T05:06:31.656Z,99306.13
2022-08-26T05:08:13.605Z,99299.44
2022-08-26T05:09:45.727Z,99301.16
2022-08-26T05:11:18.161Z,99307.69
2022-08-26T05:12:50.492Z,99294.19
2022-08-26T05:14:23.389Z,99299.94
2022-08-26T05:15:55.773Z,99302.22
2022-08-26T05:17:33.684Z,99306.31
2022-08-26T05:19:06.933Z,99303.25
2022-08-26T05:20:42.263Z,99304.34
2022-08-26T05:22:14.939Z,99307.59
2022-08-26T05:23:48.283Z,99299.66
2022-08-26T05:25:21.612Z,99309.00
2022-08-26T05:26:53.724Z,99312.69
2022-08-26T05:28:26.568Z,99305.09
2022-08-26T05:29:59.994Z,99308.59
2022-08-26T05:31:34.052Z,99302.28
2022-08-26T05:33:06.542Z,99308.44
2022-08-26T05:34:38.589Z,99300.69
2022-08-26T05:36:12.570Z,99304.00
2022-08-26T05:37:45.367Z,99301.69
2022-08-26T05:39:17.531Z,99305.53
2022-08-26T05:40:52.617Z,99307.25
2022-08-26T05:42:25.551Z,99308.84
2022-08-26T05:43:59.678Z,99305.50
2022-08-26T05:45:33.665Z,99313.25
2022-08-26T05:47:05.870Z,99306.25
2022-08-26T05:48:40.234Z,99300.69
2022-08-26T05:50:21.739Z,99303.63
2022-08-26T05:51:55.010Z,99301.53
2022-08-26T05:53:27.296Z,99302.81
2022-08-26T05:54:59.892Z,99294.91
2022-08-26T05:56:31.972Z,99294.00
2022-08-26T05:58:04.122Z,99298.78
2022-08-26T05:59:36.436Z,99302.75
2022-08-26T06:01:14.443Z,99300.44
2022-08-26T06:02:48.384Z,99297.47
2022-08-26T06:04:20.709Z,99292.25
2022-08-26T06:05:53.038Z,99293.31
2022-08-26T06:07:45.422Z,99299.25
2022-08-26T06:09:18.217Z,99299.16
2022-08-26T06:10:50.980Z,99302.16
2022-08-26T06:12:24.501Z,99299.66
2022-08-26T06:14:03.146Z,99294.78
2022-08-26T06:15:39.030Z,99298.03
2022-08-26T06:17:14.200Z,99296.50
2022-08-26T06:18:47.413Z,99301.13
2022-08-26T06:20:19.807Z,99302.06
2022-08-26T06:21:54.305Z,99302.31
2022-08-26T06:23:47.440Z,99302.03
2022-08-26T06:25:38.110Z,99300.91
2022-08-26T06:27:13.861Z,99298.53
2022-08-26T06:28:47.405Z,99301.88
2022-08-26T06:30:20.038Z,99295.69
2022-08-26T06:31:56.161Z,99296.44
2022-08-26T06:33:28.916Z,99297.47
2022-08-26T06:35:01.076Z,99297.53
2022-08-26T06:36:36.390Z,99289.66
2022-08-26T06:38:09.974Z,99297.38
2022-08-26T06:39:42.112Z,99293.59
2022-08-26T06:41:14.692Z,99297.94
2022-08-26T06:42:47.240Z,99293.03
2022-08-26T06:44:19.831Z,99297.38
2022-08-26T06:46:00.606Z,99304.88
2022-08-26T06:47:33.007Z,99290.03
2022-08-26T06:49:09.918Z,99293.00
2022-08-26T06:50:42.981Z,99292.53
2022-08-26T06:52:15.128Z,99293.69
2022-08-26T06:53:53.317Z,99299.19
2022-08-26T06:55:27.068Z,99304.03
2022-08-26T06:56:59.552Z,99294.94
2022-08-26T06:58:32.586Z,99299.81
2022-08-26T07:00:08.236Z,99298.00
2022-08-26T07:01:44.770Z,99294.09
2022-08-26T07:03:17.088Z,99284.28
2022-08-26T07:04:51.079Z,99282.53
2022-08-26T07:06:23.614Z,99297.63
2022-08-26T07:07:56.975Z,99310.81
2022-08-26T07:09:33.063Z,99303.00
2022-08-26T07:11:09.142Z,99303.34
2022-08-26T07:12:41.241Z,99295.88
2022-08-26T07:14:14.014Z,99297.41
2022-08-26T07:15:48.158Z,99291.47
2022-08-26T07:17:25.501Z,99283.63
2022-08-26T07:18:57.921Z,99293.63
2022-08-26T07:20:30.398Z,99296.06
2022-08-26T07:22:03.886Z,99294.47
2022-08-26T07:23:36.809Z,99289.63
2022-08-26T07:25:09.379Z,99295.50
2022-08-26T07:26:43.287Z,99293.13
2022-08-26T07:28:15.380Z,99297.03
2022-08-26T07:29:47.734Z,99290.13
2022-08-26T07:31:21.929Z,99289.47
2022-08-26T07:32:55.823Z,99289.78
2022-08-26T07:34:29.258Z,99287.88
2022-08-26T07:36:01.955Z,99292.19
2022-08-26T07:37:39.166Z,99279.22
2022-08-26T07:39:11.835Z,99284.09
2022-08-26T07:40:43.932Z,99282.94
2022-08-26T07:42:16.807Z,99281.94
2022-08-26T07:43:51.847Z,99281.56
2022-08-26T07:45:24.582Z,99286.03
2022-08-26T07:46:56.717Z,99282.00
2022-08-26T07:48:29.088Z,99279.31
2022-08-26T07:50:02.695Z,99281.59
2022-08-26T07:51:37.198Z,99284.13
2022-08-26T07:53:10.801Z,99277.34
2022-08-26T07:54:44.803Z,99282.53
2022-08-26T07:56:17.038Z,99284.94
2022-08-26T07:57:49.808Z,99283.97
2022-08-26T07:59:21.947Z,99287.50
2022-08-26T08:00:55.249Z,99279.88
2022-08-26T08:02:28.500Z,99277.66
2022-08-26T08:04:01.101Z,99287.25
2022-08-26T08:05:34.808Z,99287.84
2022-08-26T08:07:07.557Z,99280.09
2022-08-26T08:08:44.657Z,99277.53
2022-08-26T08:10:21.049Z,99285.16
2022-08-26T08:11:53.281Z,99277.25
2022-08-26T08:13:25.449Z,99278.66
2022-08-26T08:14:57.609Z,99273.44
2022-08-26T08:16:32.092Z,99276.69
2022-08-26T08:18:06.759Z,99272.56
2022-08-26T08:19:47.789Z,99279.63
2022-08-26T08:21:21.833Z,99281.38
2022-08-26T08:22:56.657Z,99279.34
2022-08-26T08:24:29.925Z,99282.69
2022-08-26T08:26:05.785Z,99284.19
2022-08-26T08:27:41.517Z,99274.34
2022-08-26T08:29:13.987Z,99277.28
2022-08-26T08:30:46.102Z,99273.03
2022-08-26T08:32:18.795Z,99277.53
2022-08-26T08:33:50.976Z,99270.09
2022-08-26T08:35:26.329Z,99274.31
2022-08-26T08:36:58.539Z,99274.13
2022-08-26T08:38:32.225Z,99265.97
2022-08-26T08:40:04.888Z,99259.31
2022-08-26T08:41:40.434Z,99262.06
2022-08-26T08:43:14.835Z,99258.06
2022-08-26T08:44:52.142Z,99269.13
2022-08-26T08:46:24.717Z,99267.50
2022-08-26T08:48:00.368Z,99268.22
2022-08-26T08:49:34.351Z,99268.94
2022-08-26T08:51:14.444Z,99262.34
2022-08-26T08:52:51.018Z,99270.66
2022-08-26T08:54:26.422Z,99269.50
2022-08-26T08:55:58.526Z,99265.53
2022-08-26T08:57:39.789Z,99265.78
2022-08-26T08:59:25.206Z,99273.03
2022-08-26T09:01:00.657Z,99267.44
2022-08-26T09:02:39.313Z,99259.47
2022-08-26T09:04:30.699Z,99257.34
2022-08-26T09:06:05.325Z,99257.06
2022-08-26T09:07:39.291Z,99249.50
2022-08-26T09:09:16.521Z,99255.66
2022-08-26T09:11:02.003Z,99253.41
2022-08-26T09:12:34.704Z,99255.75
2022-08-26T09:14:08.114Z,99249.06
2022-08-26T09:15:46.771Z,99246.91
2022-08-26T09:17:39.151Z,99253.88
2022-08-26T09:19:19.561Z,99253.50
2022-08-26T09:21:05.687Z,99245.28
2022-08-26T09:22:38.688Z,99247.56
2022-08-26T09:24:14.013Z,99252.63
2022-08-26T09:25:48.122Z,99247.13
2022-08-26T09:27:40.288Z,99247.19
2022-08-26T09:30:59.824Z,99249.66
2022-08-26T09:32:32.260Z,99254.75
2022-08-26T09:34:04.941Z,99252.00
2022-08-26T09:35:39.512Z,99247.19
2022-08-26T09:37:11.711Z,99247.97
2022-08-26T09:38:45.075Z,99240.97
2022-08-26T09:40:34.539Z,99236.72
2022-08-26T09:42:14.239Z,99238.97
2022-08-26T09:44:04.301Z,99241.19
2022-08-26T09:45:36.982Z,99241.19
2022-08-26T09:47:09.681Z,99241.31
2022-08-26T09:48:43.502Z,99242.00
2022-08-26T09:50:23.351Z,99246.22
2022-08-26T09:52:09.047Z,99238.38
2022-08-26T09:53:52.930Z,99241.19
2022-08-26T09:55:25.247Z,99240.44
2022-08-26T09:57:17.869Z,99244.00
2022-08-26T09:58:50.727Z,99237.72
2022-08-26T10:00:24.388Z,99240.50
2022-08-26T10:02:15.209Z,99236.94
2022-08-26T10:03:50.665Z,99231.94
2022-08-26T10:05:35.164Z,99234.75
2022-08-26T10:07:08.254Z,99236.06
2022-08-26T10:08:42.350Z,99230.38
2022-08-26T10:10:33.714Z,99229.63
2022-08-26T10:12:13.431Z,99223.19
2022-08-26T10:13:49.300Z,99224.59
2022-08-26T10:15:23.705Z,99229.63
2022-08-26T10:17:26.745Z,99224.16
2022-08-26T10:19:07.783Z,99225.69
2022-08-26T10:20:45.620Z,99225.06
2022-08-26T10:22:21.026Z,99224.56
2022-08-26T10:23:55.507Z,99220.47
2022-08-26T10:25:29.727Z,99226.09
2022-08-26T10:27:06.216Z,99220.41
2022-08-26T10:28:44.247Z,99223.16
2022-08-26T10:30:20.690Z,99223.75
2022-08-26T10:32:02.541Z,99228.56
2022-08-26T10:33:38.661Z,99226.97
2022-08-26T10:35:12.270Z,99209.97
2022-08-26T10:37:14.133Z,99216.19
2022-08-26T10:38:48.474Z,99219.59
2022-08-26T10:40:25.007Z,99215.28
2022-08-26T10:42:00.569Z,99215.16
2022-08-26T10:43:37.037Z,99215.72
2022-08-26T10:45:22.090Z,99213.41
2022-08-26T10:46:57.256Z,99213.25
2022-08-26T10:48:35.845Z,99217.25
2022-08-26T10:50:08.171Z,99205.03
2022-08-26T10:51:50.390Z,99212.50
2022-08-26T10:53:36.302Z,99209.50
2022-08-26T10:55:09.346Z,99210.66
2022-08-26T10:56:41.800Z,99200.69
2022-08-26T10:58:26.168Z,99204.91
2022-08-26T11:00:30.043Z,99203.47
2022-08-26T11:02:04.089Z,99199.53
2022-08-26T11:03:43.067Z,99196.19
2022-08-26T11:05:23.514Z,99191.09
2022-08-26T11:07:14.547Z,99195.91
2022-08-26T11:08:47.758Z,99193.78
2022-08-26T11:10:19.798Z,99195.03
2022-08-26T11:11:51.945Z,99194.81
2022-08-26T11:13:42.567Z,99192.47
2022-08-26T11:15:24.516Z,99189.31
2022-08-26T11:16:57.833Z,99192.66
2022-08-26T11:18:41.323Z,99189.69
2022-08-26T11:20:22.348Z,99186.91
2022-08-26T11:22:31.736Z,99185.13
2022-08-26T11:24:03.819Z,99185.69
2022-08-26T11:25:57.831Z,99183.88
2022-08-26T11:27:35.178Z,99173.47
2022-08-26T11:29:13.279Z,99169.84
2022-08-26T11:30:47.750Z,99173.03
2022-08-26T11:32:35.716Z,99166.34
2022-08-26T11:34:13.128Z,99166.75
2022-08-26T11:35:46.229Z,99165.91
2022-08-26T11:38:55.875Z,99165.72
2022-08-26T11:40:32.710Z,99158.75
2022-08-26T11:42:16.792Z,99153.69
2022-08-26T11:43:52.967Z,99152.84
2022-08-26T11:45:34.060Z,99147.13
2022-08-26T11:47:11.559Z,99146.34
2022-08-26T11:48:43.907Z,99151.91
2022-08-26T11:50:21.143Z,99144.09
2022-08-26T11:52:07.405Z,99144.00
2022-08-26T11:53:42.591Z,99141.84
2022-08-26T11:55:15.019Z,99143.22
2022-08-26T11:56:48.800Z,99144.63
2022-08-26T11:58:21.718Z,99141.03
2022-08-26T11:59:55.443Z,99143.09
2022-08-26T12:01:31.276Z,99142.28
2022-08-26T12:03:07.250Z,99137.22
2022-08-26T12:04:41.139Z,99146.31
2022-08-26T12:06:14.252Z,99140.47
2022-08-26T12:07:48.929Z,99129.63
2022-08-26T12:09:25.977Z,99129.47
2022-08-26T12:11:09.694Z,99128.44
2022-08-26T12:12:42.818Z,99129.53
2022-08-26T12:14:17.817Z,99132.38
2022-08-26T12:15:55.934Z,99126.72
2022-08-26T12:17:28.423Z,99125.22
2022-08-26T12:19:00.841Z,99127.84
2022-08-26T12:20:48.675Z,99120.03
2022-08-26T12:22:20.954Z,99117.31
2022-08-26T12:23:54.948Z,99119.19
2022-08-26T12:25:28.146Z,99122.31
2022-08-26T12:27:15.467Z,99114.88
2022-08-26T12:28:49.318Z,99113.19
2022-08-26T12:30:23.433Z,99119.06
2022-08-26T12:32:09.677Z,99113.94
2022-08-26T12:33:41.852Z,99114.47
2022-08-26T12:35:16.321Z,99104.88
2022-08-26T12:36:48.620Z,99105.63
2022-08-26T12:38:21.518Z,99112.03
2022-08-26T12:39:54.210Z,99103.38
2022-08-26T12:41:45.243Z,99106.03
2022-08-26T12:43:37.142Z,99106.13
2022-08-26T12:45:09.938Z,99104.84
2022-08-26T12:46:43.922Z,99099.25
2022-08-26T12:48:26.944Z,99100.75
2022-08-26T12:50:19.339Z,99099.38
2022-08-26T12:51:51.746Z,99099.84
2022-08-26T12:53:25.329Z,99091.19
2022-08-26T12:55:02.855Z,99094.47
2022-08-26T12:56:39.630Z,99084.88
2022-08-26T12:58:21.146Z,99091.59
2022-08-26T12:59:53.619Z,99086.22
2022-08-26T13:01:25.837Z,99090.16
2022-08-26T13:03:01.923Z,99090.63
2022-08-26T13:04:36.150Z,99089.03
2022-08-26T13:06:15.932Z,99079.03
2022-08-26T13:08:07.163Z,99088.72
2022-08-26T13:09:39.664Z,99085.56
2022-08-26T13:11:20.440Z,99082.28
2022-08-26T13:12:52.587Z,99081.97
2022-08-26T13:14:24.929Z,99086.25
2022-08-26T13:15:57.471Z,99084.25
2022-08-26T13:17:29.916Z,99075.22
2022-08-26T13:19:05.221Z,99079.63
2022-08-26T13:20:41.703Z,99070.16
2022-08-26T13:22:15.039Z,99071.19
2022-08-26T13:23:47.907Z,99066.44
2022-08-26T13:25:20.126Z,99070.84
2022-08-26T13:26:52.267Z,99072.28
2022-08-26T13:28:24.711Z,99081.38
2022-08-26T13:29:57.878Z,99073.31
2022-08-26T13:31:32.487Z,99066.53
2022-08-26T13:33:05.686Z,99065.19
2022-08-26T13:34:39.095Z,99064.72
2022-08-26T13:36:11.275Z,99065.00
2022-08-26T13:37:44.124Z,99058.34
2022-08-26T13:39:18.439Z,99060.13
2022-08-26T13:40:51.120Z,99054.06
2022-08-26T13:42:23.220Z,99052.47
2022-08-26T13:43:55.379Z,99046.38
2022-08-26T13:45:27.804Z,99043.03
2022-08-26T13:47:00.777Z,99042.19
2022-08-26T13:48:35.147Z,99037.63
2022-08-26T13:50:08.905Z,99039.44
2022-08-26T13:51:41.903Z,99035.84
2022-08-26T13:53:14.877Z,99037.38
2022-08-26T13:54:46.923Z,99037.09
2022-08-26T13:56:19.814Z,99029.97
2022-08-26T13:57:52.313Z,99030.59
2022-08-26T13:59:24.781Z,99033.31
2022-08-26T14:00:57.608Z,99031.66
2022-08-26T14:02:31.106Z,99028.91
2022-08-26T14:04:03.430Z,99026.16
2022-08-26T14:05:35.883Z,99025.25
2022-08-26T14:07:08.426Z,99022.72
2022-08-26T14:08:41.374Z,99021.72
2022-08-26T14:10:13.642Z,99025.75
2022-08-26T14:11:54.647Z,99015.69
2022-08-26T14:13:27.278Z,99021.34
2022-08-26T14:15:00.374Z,99019.78
2022-08-26T14:16:34.519Z,99017.13
2022-08-26T14:18:08.817Z,99023.47
2022-08-26T14:19:44.145Z,99022.63
2022-08-26T14:21:16.258Z,99028.75
2022-08-26T14:23:12.689Z,99026.56
2022-08-26T14:24:40.671Z,99016.22
2022-08-26T14:26:27.884Z,99034.00
2022-08-26T14:28:01.698Z,99028.19
2022-08-26T14:29:33.891Z,99030.84
2022-08-26T14:31:06.917Z,99027.84
2022-08-26T14:32:41.542Z,99026.34
2022-08-26T14:34:13.918Z,99038.09
2022-08-26T14:35:48.848Z,99037.31
2022-08-26T14:37:21.743Z,99037.31
2022-08-26T14:38:54.698Z,99036.63
2022-08-26T14:40:28.990Z,99035.31
2022-08-26T14:42:01.344Z,99037.63
2022-08-26T14:43:34.029Z,99035.59
2022-08-26T14:45:07.542Z,99035.63
2022-08-26T14:46:44.751Z,99039.25
2022-08-26T14:48:16.946Z,99038.78
2022-08-26T14:49:49.499Z,99032.63
2022-08-26T14:51:21.781Z,99039.28
2022-08-26T14:53:12.572Z,99026.84
2022-08-26T14:54:44.781Z,99040.97
2022-08-26T14:56:17.981Z,99033.31
2022-08-26T14:57:50.557Z,99031.81
2022-08-26T14:59:25.519Z,99034.47
2022-08-26T15:00:57.785Z,99030.09
2022-08-26T15:02:34.115Z,99026.59
2022-08-26T15:04:06.784Z,99031.50
2022-08-26T15:05:39.916Z,99028.72
2022-08-26T15:07:12.642Z,99021.81
2022-08-26T15:08:45.284Z,99020.53
2022-08-26T15:10:18.076Z,99023.13
2022-08-26T15:11:50.756Z,99021.81
2022-08-26T15:13:22.826Z,99016.03
2022-08-26T15:14:55.218Z,99015.09
2022-08-26T15:16:28.322Z,99013.44
2022-08-26T15:18:00.478Z,99008.94
2022-08-26T15:19:32.542Z,99005.22
2022-08-26T15:21:06.270Z,99005.31
2022-08-26T15:22:39.036Z,99003.41
2022-08-26T15:24:11.360Z,99001.34
2022-08-26T15:25:43.730Z,98999.22
2022-08-26T15:27:16.202Z,98995.53
2022-08-26T15:28:48.615Z,98994.94
2022-08-26T15:30:20.714Z,98994.19
2022-08-26T15:31:57.182Z,98987.25
2022-08-26T15:33:30.311Z,98996.72
2022-08-26T15:35:06.854Z,98992.75
2022-08-26T15:36:42.737Z,98998.78
2022-08-26T15:38:15.085Z,98995.03
2022-08-26T15:39:49.912Z,98993.38
2022-08-26T15:41:22.479Z,98990.22
2022-08-26T15:43:11.285Z,98986.94
2022-08-26T15:44:46.796Z,98993.63
2022-08-26T15:46:19.363Z,98981.34
2022-08-26T15:48:01.365Z,98986.50
2022-08-26T15:49:34.988Z,98995.22
2022-08-26T15:51:07.931Z,98992.00
2022-08-26T15:52:40.368Z,98992.22
2022-08-26T15:54:12.808Z,98999.50
2022-08-26T15:55:45.488Z,98991.25
2022-08-26T15:57:19.744Z,98993.50
2022-08-26T15:58:54.086Z,98989.41
2022-08-26T16:00:28.593Z,98982.53
2022-08-26T16:02:02.084Z,98989.22
2022-08-26T16:03:34.909Z,98988.16
2022-08-26T16:05:07.562Z,98990.53
2022-08-26T16:06:41.284Z,98997.13
2022-08-26T16:08:14.224Z,98987.50
2022-08-26T16:09:49.093Z,98982.78
2022-08-26T16:11:27.193Z,98982.47
2022-08-26T16:12:59.337Z,98981.97
2022-08-26T16:14:31.533Z,98978.44
2022-08-26T16:16:03.849Z,98975.00
2022-08-26T16:17:37.709Z,98971.53
2022-08-26T16:19:10.140Z,98976.41
2022-08-26T16:20:55.330Z,98972.19
2022-08-26T16:22:43.013Z,98975.88
2022-08-26T16:24:15.244Z,98965.44
2022-08-26T16:25:47.392Z,98969.75
2022-08-26T16:27:19.505Z,98967.81
2022-08-26T16:28:55.428Z,98963.78
2022-08-26T16:30:27.719Z,98962.56
2022-08-26T16:31:59.786Z,98961.31
2022-08-26T16:33:31.973Z,98967.00
2022-08-26T16:35:04.701Z,98959.41
2022-08-26T16:36:37.787Z,98956.84
2022-08-26T16:38:10.147Z,98958.25
2022-08-26T16:39:45.130Z,98964.03
2022-08-26T16:41:17.792Z,98959.97
2022-08-26T16:42:54.941Z,98957.97
2022-08-26T16:44:28.085Z,98963.63
2022-08-26T16:46:05.041Z,98975.63
2022-08-26T16:47:37.630Z,98964.47
2022-08-26T16:49:10.011Z,98963.81
2022-08-26T16:50:42.088Z,98959.72
2022-08-26T16:52:18.368Z,98959.75
2022-08-26T16:53:52.316Z,98961.97
2022-08-26T16:55:24.406Z,98950.91
2022-08-26T16:56:56.876Z,98957.34
2022-08-26T16:58:29.535Z,98962.97
2022-08-26T17:00:05.021Z,98961.00
2022-08-26T17:01:38.447Z,98954.13
2022-08-26T17:03:10.932Z,98949.38
2022-08-26T17:04:47.161Z,98955.19
2022-08-26T17:06:20.661Z,98946.97
2022-08-26T17:07:52.962Z,98941.50
2022-08-26T17:09:25.674Z,98947.22
2022-08-26T17:11:00.642Z,98947.31
2022-08-26T17:12:33.847Z,98939.06
2022-08-26T17:14:06.134Z,98946.22
2022-08-26T17:15:38.320Z,98947.00
2022-08-26T17:17:10.586Z,98940.78
2022-08-26T17:18:43.098Z,98940.94
2022-08-26T17:20:16.155Z,98939.59
2022-08-26T17:21:48.342Z,98941.19
2022-08-26T17:23:21.003Z,98941.38
2022-08-26T17:24:53.436Z,98942.16
2022-08-26T17:26:26.244Z,98938.13
2022-08-26T17:27:58.912Z,98935.47
2022-08-26T17:29:31.027Z,98935.66
2022-08-26T17:31:03.578Z,98940.75
2022-08-26T17:32:35.841Z,98933.97
2022-08-26T17:34:07.968Z,98950.31
2022-08-26T17:35:40.117Z,98937.91
2022-08-26T17:37:12.805Z,98933.91
2022-08-26T17:38:45.044Z,98943.25
2022-08-26T17:40:22.724Z,98942.09
2022-08-26T17:41:54.865Z,98955.59
2022-08-26T17:43:27.380Z,98955.81
2022-08-26T17:44:59.605Z,98946.94
2022-08-26T17:46:33.274Z,98959.69
2022-08-26T17:48:08.087Z,98964.09
2022-08-26T17:49:41.087Z,98960.78
2022-08-26T17:51:14.548Z,98956.75
2022-08-26T17:52:46.803Z,98960.41
2022-08-26T17:54:18.981Z,98962.63
2022-08-26T17:55:52.106Z,98964.16
2022-08-26T17:57:25.340Z,98966.34
2022-08-26T17:59:02.374Z,98968.53
2022-08-26T18:00:36.215Z,98969.34
2022-08-26T18:02:08.747Z,98969.41
2022-08-26T18:03:41.154Z,98967.38
2022-08-26T18:05:14.402Z,98975.81
2022-08-26T18:06:46.807Z,98980.06
2022-08-26T18:08:19.415Z,98980.09
2022-08-26T18:09:51.987Z,98980.81
2022-08-26T18:11:24.555Z,98985.72
2022-08-26T18:12:56.886Z,98989.94
2022-08-26T18:14:29.860Z,98990.59
2022-08-26T18:16:03.343Z,98989.22
2022-08-26T18:17:35.637Z,98986.47
2022-08-26T18:19:08.232Z,98984.38
2022-08-26T18:20:41.617Z,98988.59
2022-08-26T18:22:15.658Z,98992.78
2022-08-26T18:23:48.239Z,98985.81
2022-08-26T18:25:20.451Z,98990.72
2022-08-26T18:26:52.847Z,98989.34
2022-08-26T18:28:24.946Z,98994.25
2022-08-26T18:29:58.279Z,98997.06
2022-08-26T18:31:30.742Z,98989.38
2022-08-26T18:33:03.286Z,98991.47
2022-08-26T18:34:35.905Z,98999.16
2022-08-26T18:36:07.943Z,98995.66
2022-08-26T18:37:40.252Z,98998.50
2022-08-26T18:39:13.690Z,98987.34
2022-08-26T18:40:45.915Z,98986.66